Time;durP1;ratioP1;P1;durP2;ratioP2;P2;SDS_P1;SDS_P2;PMS_P1;PMS_P2;Temp;Humidity;BMP_temperature;BMP_pressure;BME280_temperature;BME280_humidity;BME280_pressure;Samples;Min_cycle;Max_cycle;Signal;HPM_P1;HPM_P2
2022/07/27 00:01:11;;;;;;;6.07;2.45;;;;;;;;;;5015649;28;20056;-81
2022/07/27 00:03:38;;;;;;;6.68;2.30;;;;;;;;;;5023480;28;20060;-80
2022/07/27 00:06:05;;;;;;;5.30;2.58;;;;;;;;;;5022894;28;20506;-80
2022/07/27 00:08:31;;;;;;;5.97;2.30;;;;;;;;;;5033163;28;20466;-80
2022/07/27 00:10:58;;;;;;;6.50;2.35;;;;;;;;;;5027774;28;20050;-80
2022/07/27 00:13:26;;;;;;;5.78;2.10;;;;;;;;;;5022257;28;20141;-80
2022/07/27 00:15:52;;;;;;;4.07;2.10;;;;;;;;;;5022403;28;20050;-80
2022/07/27 00:18:19;;;;;;;5.53;2.22;;;;;;;;;;5018058;28;20517;-79
2022/07/27 00:20:48;;;;;;;3.53;1.90;;;;;;;;;;5021565;28;20080;-80
2022/07/27 00:23:14;;;;;;;4.05;1.80;;;;;;;;;;5022977;28;20132;-80
2022/07/27 00:25:41;;;;;;;5.28;1.98;;;;;;;;;;5002039;28;20081;-80
2022/07/27 00:28:07;;;;;;;4.75;2.10;;;;;;;;;;5003640;28;20042;-80
2022/07/27 00:30:33;;;;;;;5.70;2.10;;;;;;;;;;5000657;28;20081;-80
2022/07/27 00:33:06;;;;;;;5.32;2.45;;;;;;;;;;4997165;28;20585;-79
2022/07/27 00:35:32;;;;;;;5.20;2.22;;;;;;;;;;4997450;28;20081;-81
2022/07/27 00:38:01;;;;;;;7.63;2.30;;;;;;;;;;5001693;28;20428;-80
2022/07/27 00:40:27;;;;;;;6.85;2.28;;;;;;;;;;4998927;28;20122;-79
2022/07/27 00:42:53;;;;;;;6.25;2.60;;;;;;;;;;4996232;28;20056;-80
2022/07/27 00:45:20;;;;;;;4.40;1.98;;;;;;;;;;4999127;28;20054;-80
2022/07/27 00:47:46;;;;;;;3.70;2.03;;;;;;;;;;4998505;28;20131;-79
2022/07/27 00:50:19;;;;;;;5.50;2.38;;;;;;;;;;5000977;28;20046;-79
2022/07/27 00:52:46;;;;;;;3.75;1.90;;;;;;;;;;4982775;28;20389;-80
2022/07/27 00:55:12;;;;;;;5.85;2.30;;;;;;;;;;5013038;28;20041;-79
2022/07/27 00:57:39;;;;;;;9.18;2.28;;;;;;;;;;5013413;28;20100;-79
2022/07/27 01:00:25;;;;;;;8.73;2.58;;;;;;;;;;5030630;28;20080;-79
2022/07/27 01:02:51;;;;;;;7.30;2.08;;;;;;;;;;5028680;28;20046;-78
2022/07/27 01:05:19;;;;;;;7.18;2.10;;;;;;;;;;5033197;28;20053;-79
2022/07/27 01:07:46;;;;;;;5.53;2.13;;;;;;;;;;5033257;28;20073;-79
2022/07/27 01:10:12;;;;;;;8.77;2.22;;;;;;;;;;5025199;28;20464;-79
2022/07/27 01:12:44;;;;;;;8.63;2.30;;;;;;;;;;5020429;28;20064;-80
2022/07/27 01:15:11;;;;;;;6.50;2.05;;;;;;;;;;5021026;28;20056;-79
2022/07/27 01:17:37;;;;;;;7.65;2.15;;;;;;;;;;5019718;28;20447;-79
2022/07/27 01:20:04;;;;;;;4.22;2.00;;;;;;;;;;5017701;28;20077;-80
2022/07/27 01:22:30;;;;;;;5.53;1.95;;;;;;;;;;5021912;28;20054;-79
2022/07/27 01:24:57;;;;;;;6.22;2.00;;;;;;;;;;5022347;28;20081;-79
2022/07/27 01:27:24;;;;;;;6.07;1.77;;;;;;;;;;5021511;28;20077;-79
2022/07/27 01:29:50;;;;;;;7.38;2.15;;;;;;;;;;5020981;28;20066;-80
2022/07/27 01:32:17;;;;;;;5.10;1.90;;;;;;;;;;5000321;28;20053;-79
2022/07/27 01:34:43;;;;;;;6.53;1.80;;;;;;;;;;5017093;28;20073;-80
2022/07/27 01:37:10;;;;;;;3.67;1.63;;;;;;;;;;5021727;28;20163;-80
2022/07/27 01:39:36;;;;;;;6.15;1.63;;;;;;;;;;5022717;28;20050;-79
2022/07/27 01:42:03;;;;;;;7.55;1.85;;;;;;;;;;5020295;28;20090;-79
2022/07/27 01:44:29;;;;;;;12.70;2.13;;;;;;;;;;5019527;28;20054;-80
2022/07/27 01:47:00;;;;;;;6.75;1.80;;;;;;;;;;5022192;28;20522;-80
2022/07/27 01:49:39;;;;;;;5.35;1.77;;;;;;;;;;5016926;28;20056;-79
2022/07/27 01:52:05;;;;;;;8.57;1.80;;;;;;;;;;5018952;28;20111;-80
2022/07/27 01:54:32;;;;;;;4.22;1.80;;;;;;;;;;5020924;28;20129;-80
2022/07/27 01:56:58;;;;;;;7.55;1.90;;;;;;;;;;5023214;28;20041;-80
2022/07/27 01:59:25;;;;;;;8.20;2.05;;;;;;;;;;5023414;28;20069;-80
2022/07/27 02:01:51;;;;;;;6.63;1.50;;;;;;;;;;5022359;28;20054;-80
2022/07/27 02:04:17;;;;;;;5.28;1.50;;;;;;;;;;5017695;28;20050;-79
2022/07/27 02:06:44;;;;;;;5.78;1.50;;;;;;;;;;5019328;28;20084;-80
2022/07/27 02:09:10;;;;;;;5.13;1.70;;;;;;;;;;5019707;28;20124;-81
2022/07/27 02:14:22;;;;;;;10.73;1.80;;;;;;;;;;5017726;28;20116;-80
2022/07/27 02:16:49;;;;;;;7.22;1.75;;;;;;;;;;5018366;28;20053;-80
2022/07/27 02:19:16;;;;;;;6.03;1.83;;;;;;;;;;5017563;28;20084;-80
2022/07/27 02:21:43;;;;;;;4.60;1.70;;;;;;;;;;5017511;28;20426;-80
2022/07/27 02:24:10;;;;;;;5.85;1.73;;;;;;;;;;5019067;28;20064;-80
2022/07/27 02:26:36;;;;;;;8.40;1.65;;;;;;;;;;5019163;28;20046;-80
2022/07/27 02:29:04;;;;;;;9.23;1.77;;;;;;;;;;5018696;28;20566;-80
2022/07/27 02:31:30;;;;;;;7.13;1.70;;;;;;;;;;5019415;28;20073;-80
2022/07/27 02:34:01;;;;;;;11.52;1.70;;;;;;;;;;5019438;28;20077;-80
2022/07/27 02:36:30;;;;;;;11.43;2.20;;;;;;;;;;5019397;28;20116;-81
2022/07/27 02:38:57;;;;;;;5.13;1.58;;;;;;;;;;5025039;28;20125;-79
2022/07/27 02:41:23;;;;;;;6.13;1.50;;;;;;;;;;5030659;28;20054;-79
2022/07/27 02:43:50;;;;;;;10.85;1.45;;;;;;;;;;5029630;28;20053;-81
2022/07/27 02:46:17;;;;;;;8.50;1.80;;;;;;;;;;5030273;28;20046;-79
2022/07/27 02:48:43;;;;;;;8.40;1.70;;;;;;;;;;5030325;28;20046;-80
2022/07/27 02:51:13;;;;;;;9.30;2.00;;;;;;;;;;5011145;28;20045;-81
2022/07/27 02:53:40;;;;;;;5.47;1.80;;;;;;;;;;5032723;28;20037;-80
2022/07/27 02:56:07;;;;;;;10.10;2.00;;;;;;;;;;5033376;28;20069;-80
2022/07/27 02:58:34;;;;;;;7.28;1.85;;;;;;;;;;5022624;28;20048;-80
2022/07/27 03:01:00;;;;;;;5.50;1.80;;;;;;;;;;5020421;28;20081;-80
2022/07/27 03:03:27;;;;;;;5.22;1.60;;;;;;;;;;5018356;28;20174;-80
2022/07/27 03:06:02;;;;;;;7.68;1.98;;;;;;;;;;5019752;28;20491;-79
2022/07/27 03:08:29;;;;;;;8.75;2.00;;;;;;;;;;5019129;28;20084;-80
2022/07/27 03:10:55;;;;;;;8.10;2.10;;;;;;;;;;5021309;28;20082;-81
2022/07/27 03:13:22;;;;;;;9.05;2.17;;;;;;;;;;5024988;28;20475;-81
2022/07/27 03:15:48;;;;;;;11.50;2.05;;;;;;;;;;5023891;28;20081;-81
2022/07/27 03:18:15;;;;;;;10.82;2.13;;;;;;;;;;5023813;28;20096;-80
2022/07/27 03:20:41;;;;;;;7.88;1.73;;;;;;;;;;5026100;28;20486;-78
2022/07/27 03:23:08;;;;;;;8.68;2.20;;;;;;;;;;5027519;28;20080;-79
2022/07/27 03:25:34;;;;;;;9.82;1.80;;;;;;;;;;5028812;28;20121;-79
2022/07/27 03:28:00;;;;;;;7.93;2.15;;;;;;;;;;5029923;28;20134;-80
2022/07/27 03:30:30;;;;;;;6.05;2.42;;;;;;;;;;5032975;28;20057;-78
2022/07/27 03:32:56;;;;;;;6.35;1.58;;;;;;;;;;5014091;28;20049;-78
2022/07/27 03:35:26;;;;;;;4.60;1.33;;;;;;;;;;5032839;28;20081;-79
2022/07/27 03:37:55;;;;;;;8.63;1.80;;;;;;;;;;5009049;28;20586;-79
2022/07/27 03:40:22;;;;;;;4.05;1.45;;;;;;;;;;5025828;28;20121;-79
2022/07/27 03:42:48;;;;;;;9.25;1.88;;;;;;;;;;5024228;28;20089;-80
2022/07/27 03:45:14;;;;;;;11.02;2.08;;;;;;;;;;5025353;28;20199;-80
2022/07/27 03:47:41;;;;;;;10.43;1.60;;;;;;;;;;5021584;28;20470;-80
2022/07/27 03:50:07;;;;;;;17.25;1.70;;;;;;;;;;5016406;28;20046;-79
2022/07/27 03:52:34;;;;;;;12.80;1.58;;;;;;;;;;5017185;28;20041;-80
2022/07/27 03:55:00;;;;;;;5.28;1.50;;;;;;;;;;5017803;28;20506;-81
2022/07/27 03:57:28;;;;;;;7.70;1.52;;;;;;;;;;4996909;28;20466;-79
2022/07/27 03:59:54;;;;;;;7.13;1.90;;;;;;;;;;4998512;28;20126;-80
2022/07/27 04:02:21;;;;;;;11.55;1.60;;;;;;;;;;4997196;28;20081;-80
2022/07/27 04:04:47;;;;;;;13.65;1.85;;;;;;;;;;4996572;28;20067;-81
2022/07/27 04:07:14;;;;;;;6.85;1.65;;;;;;;;;;4997539;28;20140;-81
2022/07/27 04:09:40;;;;;;;17.13;1.70;;;;;;;;;;4979830;28;20054;-81
2022/07/27 04:12:09;;;;;;;10.73;1.67;;;;;;;;;;4998417;28;20058;-81
2022/07/27 04:14:35;;;;;;;7.35;1.48;;;;;;;;;;5000238;28;20046;-80
2022/07/27 04:17:02;;;;;;;8.45;1.70;;;;;;;;;;4998330;28;20176;-80
2022/07/27 04:19:28;;;;;;;9.48;1.90;;;;;;;;;;4997181;28;20046;-81
2022/07/27 04:21:56;;;;;;;10.30;1.60;;;;;;;;;;4998784;28;20122;-80
2022/07/27 04:24:22;;;;;;;8.05;1.60;;;;;;;;;;5007411;28;20430;-81
2022/07/27 04:26:48;;;;;;;8.90;1.73;;;;;;;;;;5019404;28;20137;-80
2022/07/27 04:29:15;;;;;;;7.78;1.60;;;;;;;;;;5018382;28;20145;-81
2022/07/27 04:31:46;;;;;;;11.15;1.65;;;;;;;;;;5019937;28;20046;-81
2022/07/27 04:34:12;;;;;;;6.90;1.65;;;;;;;;;;5015110;28;20068;-81
2022/07/27 04:36:39;;;;;;;8.23;1.55;;;;;;;;;;5015947;28;20050;-81
2022/07/27 04:39:05;;;;;;;9.00;2.35;;;;;;;;;;5020556;28;20045;-80
2022/07/27 04:41:32;;;;;;;11.25;1.75;;;;;;;;;;5019229;28;20221;-81
2022/07/27 04:43:58;;;;;;;8.40;1.75;;;;;;;;;;5017505;28;20050;-80
2022/07/27 04:46:28;;;;;;;7.60;1.52;;;;;;;;;;5015063;28;20364;-81
2022/07/27 04:48:55;;;;;;;9.80;1.85;;;;;;;;;;5009593;28;20450;-80
2022/07/27 04:51:21;;;;;;;9.82;1.60;;;;;;;;;;5012119;28;20108;-77
2022/07/27 04:53:47;;;;;;;8.68;1.75;;;;;;;;;;4996225;28;20533;-79
2022/07/27 04:56:23;;;;;;;7.10;1.67;;;;;;;;;;5015309;28;20070;-79
2022/07/27 04:58:50;;;;;;;11.77;1.60;;;;;;;;;;5014634;28;20050;-80
2022/07/27 05:01:16;;;;;;;10.70;1.90;;;;;;;;;;5013600;28;20077;-80
2022/07/27 05:03:43;;;;;;;10.90;2.08;;;;;;;;;;5014963;28;20478;-80
2022/07/27 05:06:09;;;;;;;12.98;1.60;;;;;;;;;;5016365;28;20420;-79
2022/07/27 05:08:36;;;;;;;7.28;1.88;;;;;;;;;;5016666;28;20053;-80
2022/07/27 05:11:03;;;;;;;10.68;2.10;;;;;;;;;;5014789;28;20373;-80
2022/07/27 05:13:29;;;;;;;7.95;1.60;;;;;;;;;;5016370;28;20133;-81
2022/07/27 05:15:57;;;;;;;5.95;1.90;;;;;;;;;;5017536;28;20555;-81
2022/07/27 05:18:24;;;;;;;10.77;1.80;;;;;;;;;;5016724;28;20074;-79
2022/07/27 05:20:51;;;;;;;7.75;1.80;;;;;;;;;;5017786;28;20069;-80
2022/07/27 05:23:17;;;;;;;8.13;1.65;;;;;;;;;;5018003;28;20073;-80
2022/07/27 05:25:44;;;;;;;8.63;1.65;;;;;;;;;;5018899;28;20143;-80
2022/07/27 05:28:11;;;;;;;9.95;1.70;;;;;;;;;;5018517;28;20093;-80
2022/07/27 05:30:37;;;;;;;8.38;1.80;;;;;;;;;;5018067;28;20062;-80
2022/07/27 05:33:03;;;;;;;9.13;1.58;;;;;;;;;;5015758;28;20108;-80
2022/07/27 05:35:30;;;;;;;7.00;1.63;;;;;;;;;;5017165;28;20050;-80
2022/07/27 05:37:56;;;;;;;13.07;1.63;;;;;;;;;;5017007;28;20545;-81
2022/07/27 05:40:22;;;;;;;9.52;1.55;;;;;;;;;;5019494;28;20137;-80
2022/07/27 05:42:49;;;;;;;11.55;1.88;;;;;;;;;;5003142;28;20077;-81
2022/07/27 05:45:15;;;;;;;8.70;1.38;;;;;;;;;;5021585;28;20131;-81
2022/07/27 05:47:42;;;;;;;9.25;1.77;;;;;;;;;;5002104;28;20129;-80
2022/07/27 05:50:08;;;;;;;13.27;1.83;;;;;;;;;;5019799;28;20063;-80
2022/07/27 05:52:35;;;;;;;8.13;1.42;;;;;;;;;;5021281;28;20057;-81
2022/07/27 05:55:02;;;;;;;11.50;1.70;;;;;;;;;;5019862;28;20057;-79
2022/07/27 05:57:29;;;;;;;6.90;1.63;;;;;;;;;;4998692;28;20573;-80
2022/07/27 05:59:57;;;;;;;9.00;1.77;;;;;;;;;;5001064;28;20073;-81
2022/07/27 06:02:24;;;;;;;9.25;1.50;;;;;;;;;;4998922;28;20051;-81
2022/07/27 06:04:50;;;;;;;7.13;1.75;;;;;;;;;;4996117;28;20083;-80
2022/07/27 06:10:02;;;;;;;11.20;3.92;;;;;;;;;;4997806;28;20328;-80
2022/07/27 06:12:28;;;;;;;10.52;1.60;;;;;;;;;;4998803;28;20703;-79
2022/07/27 06:14:55;;;;;;;4.95;1.30;;;;;;;;;;4998308;28;20050;-79
2022/07/27 06:17:21;;;;;;;12.55;1.23;;;;;;;;;;5002534;28;20150;-79
2022/07/27 06:19:48;;;;;;;12.18;2.10;;;;;;;;;;5000425;28;20054;-79
2022/07/27 06:22:14;;;;;;;12.13;1.90;;;;;;;;;;5000678;28;20046;-79
2022/07/27 06:24:41;;;;;;;8.77;1.70;;;;;;;;;;5012086;28;20077;-80
2022/07/27 06:27:07;;;;;;;10.80;1.60;;;;;;;;;;5021195;28;20058;-78
2022/07/27 06:29:33;;;;;;;10.63;1.73;;;;;;;;;;5017448;28;20089;-79
2022/07/27 06:32:00;;;;;;;7.10;1.52;;;;;;;;;;5014908;28;20046;-80
2022/07/27 06:34:26;;;;;;;6.50;1.30;;;;;;;;;;5014756;28;20057;-79
2022/07/27 06:36:55;;;;;;;8.18;1.45;;;;;;;;;;5016585;28;20429;-79
2022/07/27 06:39:22;;;;;;;5.82;1.33;;;;;;;;;;5017987;28;20050;-80
2022/07/27 06:41:48;;;;;;;11.00;1.40;;;;;;;;;;5017435;28;20306;-81
2022/07/27 06:44:22;;;;;;;11.70;1.55;;;;;;;;;;5021045;28;20125;-80
2022/07/27 06:46:49;;;;;;;9.38;1.40;;;;;;;;;;5018977;28;20066;-80
2022/07/27 06:49:16;;;;;;;5.40;1.33;;;;;;;;;;4999368;28;20606;-79
2022/07/27 06:51:43;;;;;;;6.68;1.27;;;;;;;;;;5015336;28;20045;-81
2022/07/27 06:54:10;;;;;;;13.43;1.80;;;;;;;;;;5008764;28;20050;-81
2022/07/27 06:56:36;;;;;;;13.10;1.40;;;;;;;;;;5022047;28;20070;-81
2022/07/27 06:59:03;;;;;;;8.63;1.35;;;;;;;;;;5022294;28;20054;-80
2022/07/27 07:01:29;;;;;;;10.40;1.40;;;;;;;;;;5020705;28;20576;-81
2022/07/27 07:03:58;;;;;;;7.55;1.45;;;;;;;;;;5021085;28;20053;-81
2022/07/27 07:06:25;;;;;;;8.27;1.15;;;;;;;;;;5029574;28;20046;-80
2022/07/27 07:08:51;;;;;;;7.68;1.10;;;;;;;;;;5028904;28;20063;-79
2022/07/27 07:11:18;;;;;;;7.25;1.20;;;;;;;;;;5020342;28;20050;-79
2022/07/27 07:13:44;;;;;;;9.98;1.30;;;;;;;;;;5020341;28;20046;-80
2022/07/27 07:16:11;;;;;;;6.35;1.08;;;;;;;;;;5017025;28;20122;-79
2022/07/27 07:18:38;;;;;;;4.95;1.40;;;;;;;;;;5015531;28;20061;-79
2022/07/27 07:21:04;;;;;;;3.85;0.82;;;;;;;;;;5015550;28;20073;-78
2022/07/27 07:23:30;;;;;;;10.07;1.50;;;;;;;;;;5017128;28;20137;-79
2022/07/27 07:25:57;;;;;;;7.93;1.38;;;;;;;;;;5021768;28;20109;-81
2022/07/27 07:28:23;;;;;;;6.13;1.08;;;;;;;;;;5020543;28;20288;-79
2022/07/27 07:30:50;;;;;;;10.48;1.42;;;;;;;;;;5021907;28;20413;-78
2022/07/27 07:33:16;;;;;;;6.28;1.30;;;;;;;;;;5016508;28;20052;-79
2022/07/27 07:35:45;;;;;;;8.43;1.30;;;;;;;;;;5017617;28;20056;-78
2022/07/27 07:38:32;;;;;;;6.47;1.45;;;;;;;;;;5018458;28;20116;-78
2022/07/27 07:40:58;;;;;;;8.90;1.60;;;;;;;;;;5017523;28;20136;-79
2022/07/27 07:43:25;;;;;;;5.78;1.30;;;;;;;;;;5020231;28;20284;-80
2022/07/27 07:45:52;;;;;;;6.72;1.02;;;;;;;;;;5015428;28;20060;-80
2022/07/27 07:48:19;;;;;;;8.90;1.25;;;;;;;;;;5025539;28;20065;-79
2022/07/27 07:50:47;;;;;;;8.18;1.30;;;;;;;;;;5023927;28;20054;-78
2022/07/27 07:53:19;;;;;;;4.88;1.40;;;;;;;;;;5019795;28;20045;-80
2022/07/27 07:55:46;;;;;;;8.68;1.15;;;;;;;;;;5005163;28;20083;-79
2022/07/27 07:58:13;;;;;;;4.93;1.20;;;;;;;;;;5015105;28;20077;-78
2022/07/27 08:00:40;;;;;;;9.68;1.17;;;;;;;;;;5014170;28;20538;-79
2022/07/27 08:03:07;;;;;;;5.63;1.13;;;;;;;;;;5013982;28;20095;-79
2022/07/27 08:05:33;;;;;;;3.72;1.08;;;;;;;;;;5014173;28;20058;-79
2022/07/27 08:08:00;;;;;;;2.72;1.08;;;;;;;;;;5029551;28;20057;-79
2022/07/27 08:10:27;;;;;;;12.00;1.38;;;;;;;;;;5018048;28;20180;-80
2022/07/27 08:12:54;;;;;;;5.40;1.00;;;;;;;;;;5018784;28;20076;-80
2022/07/27 08:15:21;;;;;;;5.40;0.90;;;;;;;;;;5017329;28;20152;-80
2022/07/27 08:18:03;;;;;;;6.90;1.02;;;;;;;;;;5022848;28;20081;-79
2022/07/27 08:20:33;;;;;;;7.35;1.10;;;;;;;;;;5016795;28;20085;-80
2022/07/27 08:22:59;;;;;;;8.20;1.40;;;;;;;;;;5015958;28;20057;-80
2022/07/27 08:25:26;;;;;;;7.82;1.10;;;;;;;;;;5017389;28;20255;-79
2022/07/27 08:27:52;;;;;;;4.57;1.10;;;;;;;;;;5018654;28;20514;-80
2022/07/27 08:30:22;;;;;;;4.20;1.08;;;;;;;;;;5022169;28;20080;-80
2022/07/27 08:32:49;;;;;;;4.88;1.10;;;;;;;;;;5015141;28;20042;-79
2022/07/27 08:35:16;;;;;;;4.63;1.00;;;;;;;;;;5016477;28;20511;-78
2022/07/27 08:37:43;;;;;;;6.55;0.93;;;;;;;;;;5000966;28;20152;-79
2022/07/27 08:40:10;;;;;;;2.40;0.80;;;;;;;;;;5018280;28;20114;-78
2022/07/27 08:42:57;;;;;;;5.30;1.00;;;;;;;;;;5017443;28;20045;-78
2022/07/27 08:45:23;;;;;;;3.30;0.70;;;;;;;;;;5000536;28;20129;-79
2022/07/27 08:47:50;;;;;;;5.95;0.95;;;;;;;;;;5016760;28;20544;-79
2022/07/27 08:50:23;;;;;;;3.25;0.77;;;;;;;;;;5016562;28;20046;-79
2022/07/27 08:52:58;;;;;;;11.15;1.10;;;;;;;;;;5012944;28;20054;-79
2022/07/27 08:55:26;;;;;;;4.65;1.00;;;;;;;;;;5018724;28;20057;-80
2022/07/27 08:57:53;;;;;;;4.65;0.80;;;;;;;;;;5020373;28;20065;-79
2022/07/27 09:00:26;;;;;;;6.70;1.20;;;;;;;;;;5017727;28;20053;-79
2022/07/27 09:02:54;;;;;;;5.55;1.35;;;;;;;;;;5018595;28;20355;-80
2022/07/27 09:05:20;;;;;;;6.90;1.10;;;;;;;;;;5019866;28;20050;-79
2022/07/27 09:08:09;;;;;;;5.03;1.08;;;;;;;;;;5019403;28;20046;-79
2022/07/27 09:10:39;;;;;;;5.78;1.20;;;;;;;;;;5018460;28;20050;-79
2022/07/27 09:13:24;;;;;;;4.43;0.82;;;;;;;;;;5014464;28;20046;-77
2022/07/27 09:15:52;;;;;;;4.23;1.03;;;;;;;;;;5011302;28;20157;-76
2022/07/27 09:18:38;;;;;;;7.53;1.23;;;;;;;;;;5008700;28;20045;-76
2022/07/27 09:21:09;;;;;;;3.47;0.90;;;;;;;;;;5011753;28;20104;-77
2022/07/27 09:23:36;;;;;;;6.20;0.90;;;;;;;;;;5016346;28;20085;-77
2022/07/27 09:26:29;;;;;;;9.02;1.08;;;;;;;;;;4994762;28;20166;-78
2022/07/27 09:29:01;;;;;;;6.38;1.10;;;;;;;;;;5013064;28;20054;-77
2022/07/27 09:31:27;;;;;;;6.25;0.90;;;;;;;;;;5009844;28;20100;-78
2022/07/27 09:33:59;;;;;;;3.22;0.90;;;;;;;;;;5008866;28;20053;-77
2022/07/27 09:36:27;;;;;;;4.72;1.08;;;;;;;;;;5010025;28;20487;-77
2022/07/27 09:38:56;;;;;;;5.07;1.08;;;;;;;;;;5010655;28;20046;-77
2022/07/27 09:41:46;;;;;;;6.00;1.27;;;;;;;;;;5011682;28;20045;-78
2022/07/27 09:44:14;;;;;;;5.07;1.00;;;;;;;;;;5011944;28;20073;-77
2022/07/27 09:46:58;;;;;;;4.45;1.20;;;;;;;;;;5011157;28;20140;-77
2022/07/27 09:49:25;;;;;;;5.65;1.17;;;;;;;;;;5009645;28;20056;-76
2022/07/27 09:51:54;;;;;;;4.28;1.02;;;;;;;;;;5015896;28;20109;-77
2022/07/27 09:54:26;;;;;;;10.38;1.50;;;;;;;;;;5023585;28;20041;-77
2022/07/27 09:57:00;;;;;;;10.40;1.33;;;;;;;;;;5030241;28;20450;-77
2022/07/27 09:59:27;;;;;;;6.68;1.20;;;;;;;;;;5028366;28;20104;-77
2022/07/27 10:01:54;;;;;;;3.22;1.08;;;;;;;;;;5032459;28;20038;-77
2022/07/27 10:04:21;;;;;;;8.35;1.50;;;;;;;;;;5029165;28;20034;-78
2022/07/27 10:06:50;;;;;;;5.13;1.00;;;;;;;;;;5032755;28;20114;-78
2022/07/27 10:09:29;;;;;;;8.45;1.20;;;;;;;;;;5031250;28;20109;-78
2022/07/27 10:11:56;;;;;;;7.05;1.40;;;;;;;;;;5024243;28;20050;-78
2022/07/27 10:14:24;;;;;;;4.40;1.10;;;;;;;;;;5028092;28;20045;-77
2022/07/27 10:16:51;;;;;;;7.97;1.60;;;;;;;;;;5026403;28;20270;-76
2022/07/27 10:19:20;;;;;;;13.35;1.33;;;;;;;;;;5022006;28;20101;-78
2022/07/27 10:21:47;;;;;;;4.90;1.20;;;;;;;;;;5012132;28;20133;-79
2022/07/27 10:24:35;;;;;;;9.82;1.33;;;;;;;;;;5015685;28;20064;-78
2022/07/27 10:27:25;;;;;;;5.03;1.23;;;;;;;;;;5016205;28;20056;-77
2022/07/27 10:29:51;;;;;;;4.47;1.05;;;;;;;;;;5026594;28;20060;-77
2022/07/27 10:32:25;;;;;;;8.00;1.25;;;;;;;;;;5023113;28;20114;-76
2022/07/27 10:34:53;;;;;;;6.60;1.20;;;;;;;;;;5015402;28;20111;-78
2022/07/27 10:37:24;;;;;;;7.50;1.02;;;;;;;;;;5014228;28;20057;-78
2022/07/27 10:42:41;;;;;;;5.18;1.25;;;;;;;;;;5012813;28;20375;-77
2022/07/27 10:45:15;;;;;;;3.42;0.95;;;;;;;;;;5012838;28;20478;-78
2022/07/27 10:47:46;;;;;;;5.82;1.17;;;;;;;;;;5013360;28;20113;-78
2022/07/27 10:50:15;;;;;;;5.40;1.38;;;;;;;;;;5014375;28;20506;-78
2022/07/27 10:52:42;;;;;;;7.10;1.35;;;;;;;;;;5012160;28;20128;-78
2022/07/27 10:55:32;;;;;;;5.38;0.85;;;;;;;;;;5014144;28;20125;-78
2022/07/27 10:58:02;;;;;;;5.57;0.93;;;;;;;;;;5008581;28;20120;-77
2022/07/27 11:00:57;;;;;;;5.85;0.98;;;;;;;;;;5031137;28;20060;-77
2022/07/27 11:03:28;;;;;;;6.05;1.20;;;;;;;;;;5028662;28;20041;-77
2022/07/27 11:05:57;;;;;;;5.28;1.25;;;;;;;;;;5035281;28;20057;-77
2022/07/27 11:08:41;;;;;;;5.85;1.15;;;;;;;;;;5032390;28;20042;-77
2022/07/27 11:11:15;;;;;;;2.67;0.88;;;;;;;;;;5032748;28;20061;-78
2022/07/27 11:13:41;;;;;;;4.25;1.20;;;;;;;;;;5027684;28;20050;-78
2022/07/27 11:16:09;;;;;;;6.15;1.08;;;;;;;;;;5033449;28;20049;-76
2022/07/27 11:19:02;;;;;;;4.30;1.15;;;;;;;;;;5027880;28;20058;-78
2022/07/27 11:21:31;;;;;;;6.05;1.20;;;;;;;;;;5034701;28;20084;-78
2022/07/27 11:24:16;;;;;;;7.50;1.33;;;;;;;;;;5021739;28;20088;-78
2022/07/27 11:26:42;;;;;;;5.88;1.20;;;;;;;;;;5019849;28;20141;-78
2022/07/27 11:29:09;;;;;;;7.20;0.95;;;;;;;;;;5017865;28;20418;-78
2022/07/27 11:31:37;;;;;;;5.78;1.25;;;;;;;;;;5018305;28;20053;-79
2022/07/27 11:34:28;;;;;;;6.75;1.20;;;;;;;;;;5017519;28;20046;-78
2022/07/27 11:36:57;;;;;;;5.45;1.25;;;;;;;;;;5019170;28;20065;-79
2022/07/27 11:39:24;;;;;;;5.30;1.38;;;;;;;;;;5019401;28;20057;-79
2022/07/27 11:42:11;;;;;;;4.45;1.80;;;;;;;;;;5019058;28;20491;-78
2022/07/27 11:44:46;;;;;;;2.92;1.13;;;;;;;;;;5019127;28;20054;-78
2022/07/27 11:47:16;;;;;;;7.35;1.33;;;;;;;;;;5017989;28;20050;-78
2022/07/27 11:49:43;;;;;;;5.82;1.38;;;;;;;;;;5017760;28;20053;-78
2022/07/27 11:52:10;;;;;;;5.88;1.10;;;;;;;;;;5018513;28;20049;-78
2022/07/27 11:54:38;;;;;;;6.20;1.30;;;;;;;;;;5019536;28;20091;-79
2022/07/27 11:57:04;;;;;;;3.78;1.10;;;;;;;;;;5019525;28;20112;-78
2022/07/27 11:59:34;;;;;;;5.20;1.27;;;;;;;;;;5020011;28;20050;-79
2022/07/27 12:02:02;;;;;;;3.72;0.93;;;;;;;;;;5018942;28;20350;-78
2022/07/27 12:04:30;;;;;;;8.85;1.60;;;;;;;;;;5017173;28;20058;-77
2022/07/27 12:06:56;;;;;;;3.47;0.90;;;;;;;;;;5017502;28;20053;-77
2022/07/27 12:09:23;;;;;;;11.18;1.50;;;;;;;;;;5016787;28;20089;-78
2022/07/27 12:11:54;;;;;;;8.05;1.10;;;;;;;;;;5014971;28;20114;-78
2022/07/27 12:14:45;;;;;;;3.95;1.00;;;;;;;;;;5014523;28;20407;-77
2022/07/27 12:17:32;;;;;;;6.00;1.27;;;;;;;;;;5008650;28;20108;-77
2022/07/27 12:19:59;;;;;;;4.68;1.10;;;;;;;;;;5003673;28;20125;-77
2022/07/27 12:22:32;;;;;;;6.60;1.10;;;;;;;;;;5015581;28;20053;-77
2022/07/27 12:24:59;;;;;;;7.32;1.30;;;;;;;;;;5005051;28;20315;-77
2022/07/27 12:27:26;;;;;;;3.55;1.20;;;;;;;;;;5015323;28;20451;-78
2022/07/27 12:30:05;;;;;;;7.07;1.30;;;;;;;;;;5013448;28;20081;-77
2022/07/27 12:32:33;;;;;;;8.60;1.20;;;;;;;;;;5012848;28;20141;-78
2022/07/27 12:35:00;;;;;;;4.18;1.20;;;;;;;;;;5012308;28;20122;-77
2022/07/27 12:37:30;;;;;;;7.35;1.20;;;;;;;;;;4994838;28;20076;-77
2022/07/27 12:39:57;;;;;;;7.32;1.08;;;;;;;;;;5015879;28;20077;-78
2022/07/27 12:42:33;;;;;;;5.68;1.30;;;;;;;;;;5013862;28;20085;-76
2022/07/27 12:45:09;;;;;;;5.75;1.40;;;;;;;;;;5015031;28;20161;-77
2022/07/27 12:47:41;;;;;;;5.97;1.35;;;;;;;;;;5014442;28;20538;-76
2022/07/27 12:50:08;;;;;;;7.55;1.38;;;;;;;;;;5013763;28;20074;-77
2022/07/27 12:52:39;;;;;;;3.63;1.42;;;;;;;;;;5011106;28;20462;-77
2022/07/27 12:55:05;;;;;;;8.98;1.40;;;;;;;;;;5002154;28;20070;-77
2022/07/27 12:57:38;;;;;;;7.50;1.20;;;;;;;;;;5011061;28;20056;-77
2022/07/27 13:00:23;;;;;;;7.05;1.20;;;;;;;;;;5012521;28;20116;-78
2022/07/27 13:02:57;;;;;;;5.75;1.42;;;;;;;;;;5010023;28;20053;-75
2022/07/27 13:05:25;;;;;;;3.67;1.13;;;;;;;;;;5011590;28;20403;-77
2022/07/27 13:07:52;;;;;;;5.25;1.40;;;;;;;;;;5011676;28;20279;-77
2022/07/27 13:10:18;;;;;;;5.60;1.30;;;;;;;;;;5011391;28;20471;-77
2022/07/27 13:12:45;;;;;;;3.47;1.30;;;;;;;;;;5013048;28;20042;-78
2022/07/27 13:15:12;;;;;;;3.55;1.10;;;;;;;;;;5010451;28;20084;-77
2022/07/27 13:17:40;;;;;;;8.05;1.40;;;;;;;;;;5009478;28;20137;-77
2022/07/27 13:20:07;;;;;;;6.03;1.17;;;;;;;;;;5008462;28;20137;-77
2022/07/27 13:22:34;;;;;;;3.95;1.05;;;;;;;;;;5009236;28;20050;-78
2022/07/27 13:25:00;;;;;;;5.78;1.10;;;;;;;;;;5012903;28;20136;-78
2022/07/27 13:27:41;;;;;;;3.92;0.95;;;;;;;;;;5013858;28;20177;-78
2022/07/27 13:30:08;;;;;;;4.97;1.20;;;;;;;;;;5015878;28;20191;-79
2022/07/27 13:32:35;;;;;;;5.38;1.20;;;;;;;;;;5020544;28;20176;-79
2022/07/27 13:35:05;;;;;;;4.38;1.30;;;;;;;;;;5020797;28;20457;-77
2022/07/27 13:37:31;;;;;;;3.33;0.95;;;;;;;;;;5011574;28;20101;-78
2022/07/27 13:39:58;;;;;;;5.25;1.10;;;;;;;;;;5012644;28;20069;-78
2022/07/27 13:42:25;;;;;;;8.35;1.33;;;;;;;;;;5013180;28;20046;-78
2022/07/27 13:44:51;;;;;;;4.53;1.08;;;;;;;;;;5015752;28;20061;-76
2022/07/27 13:47:34;;;;;;;2.63;1.00;;;;;;;;;;5017368;28;20106;-78
2022/07/27 13:50:00;;;;;;;6.15;1.10;;;;;;;;;;5021180;28;20076;-78
2022/07/27 13:52:27;;;;;;;8.20;1.30;;;;;;;;;;5022907;28;20061;-76
2022/07/27 13:54:54;;;;;;;3.78;1.17;;;;;;;;;;5023527;28;20049;-77
2022/07/27 13:57:20;;;;;;;4.35;1.17;;;;;;;;;;5021992;28;20161;-78
2022/07/27 13:59:49;;;;;;;6.45;1.17;;;;;;;;;;5024226;28;20054;-78
2022/07/27 14:02:16;;;;;;;4.40;1.20;;;;;;;;;;5022107;28;20050;-78
2022/07/27 14:04:51;;;;;;;5.82;1.20;;;;;;;;;;5022510;28;20062;-77
2022/07/27 14:07:17;;;;;;;5.47;1.08;;;;;;;;;;5015388;28;20080;-79
2022/07/27 14:12:29;;;;;;;3.95;1.17;;;;;;;;;;5014405;28;20045;-77
2022/07/27 14:14:55;;;;;;;6.47;1.27;;;;;;;;;;5015298;28;20076;-78
2022/07/27 14:17:22;;;;;;;4.78;1.20;;;;;;;;;;5015507;28;20109;-77
2022/07/27 14:19:51;;;;;;;4.22;1.20;;;;;;;;;;5013877;28;20104;-78
2022/07/27 14:22:17;;;;;;;7.13;1.40;;;;;;;;;;5015118;28;20136;-76
2022/07/27 14:24:43;;;;;;;5.97;1.23;;;;;;;;;;5017375;28;20107;-79
2022/07/27 14:27:10;;;;;;;5.22;1.27;;;;;;;;;;5015294;28;20141;-78
2022/07/27 14:29:36;;;;;;;3.35;1.25;;;;;;;;;;5032743;28;20080;-78
2022/07/27 14:32:04;;;;;;;5.43;1.20;;;;;;;;;;5032476;28;20049;-78
2022/07/27 14:34:30;;;;;;;5.53;1.30;;;;;;;;;;5029147;28;20491;-78
2022/07/27 14:36:57;;;;;;;4.65;0.93;;;;;;;;;;5034776;28;20079;-78
2022/07/27 14:39:23;;;;;;;7.15;1.40;;;;;;;;;;5032179;28;20061;-77
2022/07/27 14:41:50;;;;;;;4.07;1.15;;;;;;;;;;5034036;28;20045;-77
2022/07/27 14:44:16;;;;;;;3.78;1.08;;;;;;;;;;5032624;28;20073;-78
2022/07/27 14:46:44;;;;;;;2.97;1.00;;;;;;;;;;5031654;28;20062;-77
2022/07/27 14:49:10;;;;;;;7.70;1.20;;;;;;;;;;5030517;28;20077;-77
2022/07/27 14:51:37;;;;;;;3.63;1.13;;;;;;;;;;5032874;28;20065;-78
2022/07/27 14:54:04;;;;;;;7.07;1.30;;;;;;;;;;5016431;28;20415;-77
2022/07/27 14:56:30;;;;;;;6.05;1.20;;;;;;;;;;5012448;28;20440;-78
2022/07/27 14:58:57;;;;;;;12.70;1.20;;;;;;;;;;5014075;28;20045;-77
2022/07/27 15:01:23;;;;;;;3.90;1.10;;;;;;;;;;5014145;28;20081;-77